MSC Orchestra — 3EJF3 — position and weather

sailwx.info

Track history (hours):
 
Tides and Currents Weather Stations Pressure Air Temp Water Temp Dewpoint Dewpoint Depression Visibility Wind Speed Wind Dir Waves Ship Positions

MSC Orchestra

Last reported at 2016-May-01 17:33 UTC. Time now 2016-May-02 21:17 UTC.
Position N 45°05' E 013°02'.

Length 292 m; draft 7.8 m.

Type: Ship. MMSI: 372497000.

Date/timePositionNaut miles runAvg speedWind from/ knotsBaromVisibWave heightAir tempDewpointWater temp
2016-May-01 17:33N 45°05' E 013°02'2121.3
2016-May-01 16:33N 45°19' E 012°39'1413.8
2016-May-01 15:33N 45°25' E 012°22'2 2.1
2016-May-01 14:32N 45°26' E 012°19'0 0.0
2016-May-01 13:32N 45°26' E 012°19'0 0.0
2016-May-01 12:28N 45°26' E 012°19'0 0.0
2016-May-01 11:31N 45°26' E 012°19'0 0.0
2016-May-01 10:33N 45°26' E 012°19'0 0.0
2016-May-01 09:33N 45°26' E 012°19'0 0.0
2016-May-01 08:33N 45°26' E 012°19'0 0.0
2016-May-01 07:32N 45°26' E 012°19'0 0.1
2016-May-01 06:34N 45°26' E 012°18'6 6.4
2016-May-01 05:33N 45°25' E 012°27'1716.6
2016-May-01 04:33N 45°16' E 012°47'1817.7
2016-May-01 03:33N 45°04' E 013°06'28418.9
2016-Apr-30 12:30N 42°26' E 018°33'8 8.3
2016-Apr-30 11:33N 42°29' E 018°42'4 4.4
2016-Apr-30 10:33N 42°25' E 018°46'0 0.0
2016-Apr-30 09:29N 42°25' E 018°46'0 0.0
2016-Apr-30 08:32N 42°25' E 018°46'0 0.0
2016-Apr-30 07:32N 42°25' E 018°46'0 0.0
2016-Apr-30 06:31N 42°25' E 018°46'0 0.0
2016-Apr-30 05:31N 42°25' E 018°46'0 0.0
2016-Apr-30 04:33N 42°25' E 018°46'5 4.6
2016-Apr-30 03:33N 42°27' E 018°40'7 7.2
2016-Apr-30 02:34N 42°22' E 018°33'1514.7
2016-Apr-30 01:33N 42°07' E 018°38'1414.3
2016-Apr-30 00:33N 41°53' E 018°42'24911.9
2016-Apr-29 03:33N 37°57' E 020°26'2920.4
2016-Apr-29 02:08N 37°34' E 020°48'13517.9
2016-Apr-28 18:33N 36°31' E 023°18'2020.4
2016-Apr-28 17:33N 36°49' E 023°28'2020.3
2016-Apr-28 16:33N 37°09' E 023°34'2120.5
2016-Apr-28 15:33N 37°29' E 023°40'1918.9
2016-Apr-28 14:33N 37°48' E 023°37'8 8.3
2016-Apr-28 13:33N 37°56' E 023°38'0 0.0
2016-Apr-28 12:32N 37°56' E 023°38'0 0.0
2016-Apr-28 11:32N 37°56' E 023°38'0 0.0
2016-Apr-28 10:32N 37°56' E 023°38'0 0.0
2016-Apr-28 09:31N 37°56' E 023°38'0 0.0
2016-Apr-28 08:31N 37°56' E 023°38'0 0.0
2016-Apr-28 07:33N 37°56' E 023°38'0 0.0
2016-Apr-28 06:33N 37°56' E 023°38'0 0.0
2016-Apr-28 05:30N 37°56' E 023°38'0 0.0
2016-Apr-28 04:32N 37°56' E 023°38'1 0.6
2016-Apr-28 03:33N 37°56' E 023°38'3 3.3
2016-Apr-28 02:33N 37°53' E 023°38'10 9.8
2016-Apr-28 01:33N 37°44' E 023°43'1010.0
2016-Apr-28 00:33N 37°36' E 023°51'1010.2
2016-Apr-27 23:33N 37°30' E 024°01'1210.8
2016-Apr-27 22:25N 37°22' E 024°12'1010.9
2016-Apr-27 21:31N 37°16' E 024°22'1111.1
2016-Apr-27 20:32N 37°12' E 024°35'1111.5
2016-Apr-27 19:33N 37°04' E 024°45'1211.5
2016-Apr-27 18:30N 36°55' E 024°55'233 8.3
2016-Apr-26 14:27N 38°09' E 020°16'55312.2
2016-Apr-24 17:04N 45°21' E 012°34'815.5
2016-Apr-24 16:33N 45°26' E 012°24'4 4.1
2016-Apr-24 15:33N 45°26' E 012°19'0 0.0
2016-Apr-24 14:29N 45°26' E 012°19'0 0.0
2016-Apr-24 13:32N 45°26' E 012°19'0 0.0
2016-Apr-24 12:31N 45°26' E 012°19'0 0.0
2016-Apr-24 11:31N 45°26' E 012°19'0 0.0
2016-Apr-24 10:33N 45°26' E 012°19'0 0.0
2016-Apr-24 09:30N 45°26' E 012°19'0 0.0
2016-Apr-24 08:33N 45°26' E 012°19'0 0.0
2016-Apr-24 07:32N 45°26' E 012°19'0 0.2
2016-Apr-24 06:33N 45°26' E 012°18'6 6.4
2016-Apr-24 05:34N 45°25' E 012°27'1414.2
2016-Apr-24 04:33N 45°17' E 012°45'1616.3
2016-Apr-24 03:33N 45°06' E 013°01'26017.2
2016-Apr-23 12:28N 42°36' E 017°56'8 0.9
2016-Apr-23 04:06N 42°31' E 018°05'1013.1
2016-Apr-23 03:21N 42°22' E 018°08'1114.0
2016-Apr-23 02:33N 42°11' E 018°11'1513.7
2016-Apr-23 01:28N 41°57' E 018°16'1213.2
2016-Apr-23 00:31N 41°44' E 018°20'26413.0
2016-Apr-22 04:17N 37°36' E 016°24'1115.9
2016-Apr-22 03:33N 37°27' E 016°15'10615.1
2016-Apr-21 20:33N 36°08' E 014°47'1414.7
2016-Apr-21 19:33N 35°57' E 014°35'  
Track history (hours):
 
Tides and Currents Weather Stations Pressure Air Temp Water Temp Dewpoint Dewpoint Depression Visibility Wind Speed Wind Dir Waves Ship Positions

MSC Orchestra

Last reported at 2016-May-01 17:33 UTC. Time now 2016-May-02 21:17 UTC.
Position N 45°05' E 013°02'.

Length 292 m; draft 7.8 m.

Type: Ship. MMSI: 372497000.

Date/timePositionNaut miles runAvg speedWind from/ knotsBaromVisibWave heightAir tempDewpointWater temp
2016-May-01 17:33N 45°05' E 013°02'2121.3
2016-May-01 16:33N 45°19' E 012°39'1413.8
2016-May-01 15:33N 45°25' E 012°22'2 2.1
2016-May-01 14:32N 45°26' E 012°19'0 0.0
2016-May-01 13:32N 45°26' E 012°19'0 0.0
2016-May-01 12:28N 45°26' E 012°19'0 0.0
2016-May-01 11:31N 45°26' E 012°19'0 0.0
2016-May-01 10:33N 45°26' E 012°19'0 0.0
2016-May-01 09:33N 45°26' E 012°19'0 0.0
2016-May-01 08:33N 45°26' E 012°19'0 0.0
2016-May-01 07:32N 45°26' E 012°19'0 0.1
2016-May-01 06:34N 45°26' E 012°18'6 6.4
2016-May-01 05:33N 45°25' E 012°27'1716.6
2016-May-01 04:33N 45°16' E 012°47'1817.7
2016-May-01 03:33N 45°04' E 013°06'28418.9
2016-Apr-30 12:30N 42°26' E 018°33'8 8.3
2016-Apr-30 11:33N 42°29' E 018°42'4 4.4
2016-Apr-30 10:33N 42°25' E 018°46'0 0.0
2016-Apr-30 09:29N 42°25' E 018°46'0 0.0
2016-Apr-30 08:32N 42°25' E 018°46'0 0.0
2016-Apr-30 07:32N 42°25' E 018°46'0 0.0
2016-Apr-30 06:31N 42°25' E 018°46'0 0.0
2016-Apr-30 05:31N 42°25' E 018°46'0 0.0
2016-Apr-30 04:33N 42°25' E 018°46'5 4.6
2016-Apr-30 03:33N 42°27' E 018°40'7 7.2
2016-Apr-30 02:34N 42°22' E 018°33'1514.7
2016-Apr-30 01:33N 42°07' E 018°38'1414.3
2016-Apr-30 00:33N 41°53' E 018°42'24911.9
2016-Apr-29 03:33N 37°57' E 020°26'2920.4
2016-Apr-29 02:08N 37°34' E 020°48'13517.9
2016-Apr-28 18:33N 36°31' E 023°18'2020.4
2016-Apr-28 17:33N 36°49' E 023°28'2020.3
2016-Apr-28 16:33N 37°09' E 023°34'2120.5
2016-Apr-28 15:33N 37°29' E 023°40'1918.9
2016-Apr-28 14:33N 37°48' E 023°37'8 8.3
2016-Apr-28 13:33N 37°56' E 023°38'0 0.0
2016-Apr-28 12:32N 37°56' E 023°38'0 0.0
2016-Apr-28 11:32N 37°56' E 023°38'0 0.0
2016-Apr-28 10:32N 37°56' E 023°38'0 0.0
2016-Apr-28 09:31N 37°56' E 023°38'0 0.0
2016-Apr-28 08:31N 37°56' E 023°38'0 0.0
2016-Apr-28 07:33N 37°56' E 023°38'0 0.0
2016-Apr-28 06:33N 37°56' E 023°38'0 0.0
2016-Apr-28 05:30N 37°56' E 023°38'0 0.0
2016-Apr-28 04:32N 37°56' E 023°38'1 0.6
2016-Apr-28 03:33N 37°56' E 023°38'3 3.3
2016-Apr-28 02:33N 37°53' E 023°38'10 9.8
2016-Apr-28 01:33N 37°44' E 023°43'1010.0
2016-Apr-28 00:33N 37°36' E 023°51'1010.2
2016-Apr-27 23:33N 37°30' E 024°01'1210.8
2016-Apr-27 22:25N 37°22' E 024°12'1010.9
2016-Apr-27 21:31N 37°16' E 024°22'1111.1
2016-Apr-27 20:32N 37°12' E 024°35'1111.5
2016-Apr-27 19:33N 37°04' E 024°45'1211.5
2016-Apr-27 18:30N 36°55' E 024°55'233 8.3
2016-Apr-26 14:27N 38°09' E 020°16'55312.2
2016-Apr-24 17:04N 45°21' E 012°34'815.5
2016-Apr-24 16:33N 45°26' E 012°24'4 4.1
2016-Apr-24 15:33N 45°26' E 012°19'0 0.0
2016-Apr-24 14:29N 45°26' E 012°19'0 0.0
2016-Apr-24 13:32N 45°26' E 012°19'0 0.0
2016-Apr-24 12:31N 45°26' E 012°19'0 0.0
2016-Apr-24 11:31N 45°26' E 012°19'0 0.0
2016-Apr-24 10:33N 45°26' E 012°19'0 0.0
2016-Apr-24 09:30N 45°26' E 012°19'0 0.0
2016-Apr-24 08:33N 45°26' E 012°19'0 0.0
2016-Apr-24 07:32N 45°26' E 012°19'0 0.2
2016-Apr-24 06:33N 45°26' E 012°18'6 6.4
2016-Apr-24 05:34N 45°25' E 012°27'1414.2
2016-Apr-24 04:33N 45°17' E 012°45'1616.3
2016-Apr-24 03:33N 45°06' E 013°01'26017.2
2016-Apr-23 12:28N 42°36' E 017°56'8 0.9
2016-Apr-23 04:06N 42°31' E 018°05'1013.1
2016-Apr-23 03:21N 42°22' E 018°08'1114.0
2016-Apr-23 02:33N 42°11' E 018°11'1513.7
2016-Apr-23 01:28N 41°57' E 018°16'1213.2
2016-Apr-23 00:31N 41°44' E 018°20'26413.0
2016-Apr-22 04:17N 37°36' E 016°24'1115.9
2016-Apr-22 03:33N 37°27' E 016°15'10615.1
2016-Apr-21 20:33N 36°08' E 014°47'1414.7
2016-Apr-21 19:33N 35°57' E 014°35'  

Dump ship's entire track history